Kolkata, India

10:25 PM IST on September 01, 2015 (GMT +0530)
Netaji Subhash Chandra Bose International | | Change Station
CLOSE
Current Station
Airport
Location: Kolkata,
Elevation: 20 ft
Nearby Weather Stations

Elev 20 ft 22.65 °N, 88.44 °E | Updated 5 minutes ago

Haze
Haze
82 °F
Feels Like 92 °F
N
7
Wind Variable Wind from SSW

Today
High -- | Low -- °F
--% Chance of Precip.
Yesterday
High -- | Low -- °F
Precip. -- in
5:18 AM 5:53 PM
Waning Gibbous, 88% visible
Pressure 29.62 in
Visibility 1.7 miles
Clouds Scattered Clouds 1800 ft
Few 3000 ft
Mostly Cloudy 10000 ft
Heat Index 92 °F
Dew Point 79 °F
Humidity 89%
Rainfall 0.00 in
Snow Depth Not available.
UV 0 out of 12
Pollen Not available.
Air Quality Not available.
Flu Activity Not available.
METAR VECC 011650Z 21006KT 2700 HZ SCT018 FEW030CB BKN100 28/26 Q1003 TEMPO TL1720 2000 TSRA
Pressure 29.62 in
Visibility 1.7 miles
Clouds Scattered Clouds 1800 ft
Few 3000 ft
Mostly Cloudy 10000 ft
Heat Index 92 °F
Dew Point 79 °F
Humidity 89%
Rainfall 0.00 in
Snow Depth Not available.
UV 0 out of 12
Pollen Not available.
Air Quality Not available.
Flu Activity Not available.
METAR VECC 011650Z 21006KT 2700 HZ SCT018 FEW030CB BKN100 28/26 Q1003 TEMPO TL1720 2000 TSRA

10-Day Weather Forecast

×

Almanac

Astronomy

Sep. 01, 2015 Rise Set
Actual Time
Civil Twilight
Nautical Twilight
Astronomical Twilight
Moon
Length of Visible Light
Length of Day
Tomorrow will be .
, % of the Moon is Illuminated

Today's Extremes

Country Highs Country Lows

Community

WunderPhotos

Upload Photos

1,851,555 photos uploaded!

WunderBlogs® & News

Nearby

Air Quality

  Air Quality AQ Index Pollutant
Not available.

Snow Depth

Station Depth Elevation

Earthquake Activity

City Distance Mag. Time & Date
Minimum magnitude displayed is 2.5.

Coastal Water Temperatures

Place Temperature

Stations

Nearby Weather Stations

Station Location Temp. Windchill Dew Point Humidity Wind Precip. Elev Updated Type